createdAt,value
2017-07-19T00:01:23.521Z,100128.14
2017-07-19T00:03:50.934Z,100126.09
2017-07-19T00:06:18.542Z,100119.41
2017-07-19T00:08:45.966Z,100119.53
2017-07-19T00:11:13.390Z,100119.56
2017-07-19T00:13:40.926Z,100118.90
2017-07-19T00:16:08.359Z,100116.62
2017-07-19T00:18:35.774Z,100116.30
2017-07-19T00:21:03.427Z,100122.25
2017-07-19T00:23:30.855Z,100115.10
2017-07-19T00:25:58.282Z,100110.95
2017-07-19T00:28:25.812Z,100104.38
2017-07-19T00:30:53.225Z,100105.64
2017-07-19T00:33:20.642Z,100102.31
2017-07-19T00:35:48.106Z,100099.27
2017-07-19T00:38:15.536Z,100101.11
2017-07-19T00:40:42.958Z,100089.97
2017-07-19T00:43:10.506Z,100099.47
2017-07-19T00:45:37.923Z,100091.08
2017-07-19T00:48:05.340Z,100086.55
2017-07-19T00:50:33.116Z,100093.95
2017-07-19T00:53:00.546Z,100089.02
2017-07-19T00:55:27.971Z,100087.87
2017-07-19T00:57:55.539Z,100077.97
2017-07-19T01:00:22.950Z,100077.56
2017-07-19T01:02:50.371Z,100085.44
2017-07-19T01:05:18.282Z,100081.88
2017-07-19T01:07:45.710Z,100087.70
2017-07-19T01:10:13.137Z,100077.86
2017-07-19T01:12:40.842Z,100073.29
2017-07-19T01:15:08.254Z,100058.62
2017-07-19T01:17:35.671Z,100058.25
2017-07-19T01:20:03.114Z,100061.34
2017-07-19T01:22:30.538Z,100058.34
2017-07-19T01:24:57.949Z,100064.56
2017-07-19T01:27:25.491Z,100065.89
2017-07-19T01:29:52.912Z,100067.58
2017-07-19T01:32:20.326Z,100059.72
2017-07-19T01:34:47.854Z,100057.71
2017-07-19T01:37:15.274Z,100057.77
2017-07-19T01:39:42.691Z,100055.20
2017-07-19T01:42:10.121Z,100050.97
2017-07-19T01:44:37.551Z,100057.00
2017-07-19T01:47:04.977Z,100051.47
2017-07-19T01:49:32.509Z,100059.14
2017-07-19T01:51:59.928Z,100048.86
2017-07-19T01:54:27.356Z,100045.76
2017-07-19T01:56:55.139Z,100045.91
2017-07-19T01:59:22.565Z,100051.50
2017-07-19T02:01:49.978Z,100051.76
2017-07-19T02:04:17.418Z,100055.43
2017-07-19T02:06:44.846Z,100042.25
2017-07-19T02:09:12.262Z,100047.02
2017-07-19T02:11:39.798Z,100042.44
2017-07-19T02:14:07.227Z,100034.89
2017-07-19T02:16:34.646Z,100030.92
2017-07-19T02:19:02.174Z,100033.82
2017-07-19T02:21:29.587Z,100035.23
2017-07-19T02:23:57.003Z,100026.16
2017-07-19T02:26:24.575Z,100029.06
2017-07-19T02:28:51.991Z,100021.80
2017-07-19T02:31:19.407Z,100019.91
2017-07-19T02:33:46.839Z,100025.39
2017-07-19T02:36:14.254Z,100020.55
2017-07-19T02:38:41.666Z,100020.94
2017-07-19T02:41:09.100Z,100020.70
2017-07-19T02:43:36.515Z,100023.77
2017-07-19T02:46:03.931Z,100017.97
2017-07-19T02:48:31.366Z,100019.86
2017-07-19T02:50:58.786Z,100016.78
2017-07-19T02:53:26.198Z,100014.91
2017-07-19T02:55:53.634Z,100015.96
2017-07-19T02:58:21.058Z,100008.89
2017-07-19T03:00:48.486Z,100011.27
2017-07-19T03:03:16.059Z,100014.58
2017-07-19T03:05:43.475Z,100015.73
2017-07-19T03:08:10.890Z,100009.48
2017-07-19T03:10:38.326Z,100006.97
2017-07-19T03:13:05.737Z,100007.38
2017-07-19T03:15:33.151Z,100010.88
2017-07-19T03:18:00.884Z,100011.55
2017-07-19T03:20:28.299Z,100009.03
2017-07-19T03:22:55.718Z,100004.45
2017-07-19T03:25:23.305Z,100002.32
2017-07-19T03:27:50.722Z,100001.73
2017-07-19T03:30:18.143Z,100006.83
2017-07-19T03:32:45.822Z,100008.93
2017-07-19T03:35:13.250Z,100006.52
2017-07-19T03:37:40.666Z,100011.96
2017-07-19T03:40:08.093Z,100007.38
2017-07-19T03:42:35.510Z,100008.19
2017-07-19T03:45:02.930Z,100013.95
2017-07-19T03:47:30.507Z,100009.52
2017-07-19T03:49:57.913Z,100014.81
2017-07-19T03:52:25.340Z,100007.59
2017-07-19T03:54:52.770Z,100005.88
2017-07-19T03:57:20.189Z,100006.96
2017-07-19T03:59:47.608Z,100009.11
2017-07-19T04:02:15.082Z,100006.81
2017-07-19T04:04:42.497Z,99998.78
2017-07-19T04:07:09.910Z,100002.14
2017-07-19T04:09:37.342Z,100001.70
2017-07-19T04:12:04.771Z,100002.59
2017-07-19T04:14:33.001Z,99997.41
2017-07-19T04:17:00.538Z,99994.95
2017-07-19T04:19:27.981Z,99995.84
2017-07-19T04:21:55.390Z,99986.77
2017-07-19T04:24:22.971Z,99988.31
2017-07-19T04:26:50.391Z,99989.31
2017-07-19T04:29:17.807Z,99985.46
2017-07-19T04:31:45.285Z,99987.92
2017-07-19T04:34:12.707Z,99980.02
2017-07-19T04:36:40.119Z,99979.15
2017-07-19T04:39:07.715Z,99981.02
2017-07-19T04:41:35.135Z,99984.81
2017-07-19T04:44:02.558Z,99985.58
2017-07-19T04:46:30.126Z,99991.59
2017-07-19T04:48:57.538Z,99989.77
2017-07-19T04:51:24.955Z,99992.08
2017-07-19T04:53:52.474Z,99992.09
2017-07-19T04:56:19.899Z,99991.91
2017-07-19T04:58:47.543Z,99991.22
2017-07-19T05:01:19.729Z,99986.81
2017-07-19T05:03:47.590Z,99985.02
2017-07-19T05:06:15.358Z,99993.02
2017-07-19T05:08:44.351Z,99992.34
2017-07-19T05:11:13.335Z,99984.94
2017-07-19T05:13:40.823Z,99991.34
2017-07-19T05:16:09.089Z,99981.52
2017-07-19T05:18:37.395Z,99987.72
2017-07-19T05:21:04.870Z,99979.11
2017-07-19T05:23:32.396Z,99981.58
2017-07-19T05:25:59.894Z,99980.83
2017-07-19T05:28:27.335Z,99973.80
2017-07-19T05:30:54.952Z,99973.14
2017-07-19T05:33:22.368Z,99970.92
2017-07-19T05:35:49.786Z,99973.30
2017-07-19T05:38:18.374Z,99963.17
2017-07-19T05:40:45.805Z,99960.54
2017-07-19T05:43:13.265Z,99959.39
2017-07-19T05:45:40.855Z,99961.41
2017-07-19T05:48:08.305Z,99955.47
2017-07-19T05:50:35.741Z,99946.78
2017-07-19T05:53:03.782Z,99950.22
2017-07-19T05:55:31.771Z,99943.11
2017-07-19T05:57:59.295Z,99940.03
2017-07-19T06:00:28.926Z,99944.47
2017-07-19T06:02:57.669Z,99929.13
2017-07-19T06:05:25.121Z,99929.67
2017-07-19T06:07:54.445Z,99931.95
2017-07-19T06:10:24.390Z,99929.18
2017-07-19T06:12:51.826Z,99931.38
2017-07-19T06:15:19.298Z,99939.95
2017-07-19T06:17:46.758Z,99942.80
2017-07-19T06:20:14.190Z,99942.46
2017-07-19T06:22:41.726Z,99938.25
2017-07-19T06:25:09.178Z,99932.05
2017-07-19T06:27:36.622Z,99925.89
2017-07-19T06:30:04.206Z,99931.87
2017-07-19T06:32:31.703Z,99925.38
2017-07-19T06:34:59.138Z,99922.19
2017-07-19T06:37:26.623Z,99929.73
2017-07-19T06:39:54.029Z,99938.77
2017-07-19T06:42:21.435Z,99943.84
2017-07-19T06:44:49.018Z,99938.64
2017-07-19T06:47:16.446Z,99937.34
2017-07-19T06:49:43.891Z,99925.56
2017-07-19T06:52:13.845Z,99927.20
2017-07-19T06:54:41.276Z,99918.59
2017-07-19T06:57:08.692Z,99923.19
2017-07-19T06:59:36.135Z,99928.27
2017-07-19T07:02:03.544Z,99924.86
2017-07-19T07:04:30.959Z,99919.44
2017-07-19T07:06:58.701Z,99925.82
2017-07-19T07:09:26.925Z,99925.52
2017-07-19T07:11:54.354Z,99926.66
2017-07-19T07:14:21.915Z,99921.69
2017-07-19T07:16:49.351Z,99914.56
2017-07-19T07:19:17.726Z,99912.39
2017-07-19T07:21:45.670Z,99900.77
2017-07-19T07:24:13.366Z,99910.25
2017-07-19T07:26:40.796Z,99913.98
2017-07-19T07:29:08.388Z,99912.77
2017-07-19T07:31:36.602Z,99916.09
2017-07-19T07:34:05.200Z,99909.59
2017-07-19T07:36:33.073Z,99907.75
2017-07-19T07:39:01.044Z,99898.12
2017-07-19T07:41:29.059Z,99897.62
2017-07-19T07:43:57.398Z,99893.66
2017-07-19T07:46:25.695Z,99890.45
2017-07-19T07:48:53.230Z,99892.94
2017-07-19T07:51:20.874Z,99891.27
2017-07-19T07:53:49.139Z,99902.36
2017-07-19T07:56:16.558Z,99909.91
2017-07-19T07:58:44.286Z,99910.56
2017-07-19T08:01:11.780Z,99909.01
2017-07-19T08:03:39.198Z,99911.77
2017-07-19T08:06:07.074Z,99901.14
2017-07-19T08:08:34.512Z,99898.87
2017-07-19T08:11:01.913Z,99893.61
2017-07-19T08:13:29.650Z,99883.42
2017-07-19T08:15:57.078Z,99889.93
2017-07-19T08:18:24.490Z,99891.93
2017-07-19T08:20:52.058Z,99888.77
2017-07-19T08:23:19.482Z,99885.30
2017-07-19T08:25:46.905Z,99877.06
2017-07-19T08:28:14.342Z,99881.70
2017-07-19T08:30:41.758Z,99880.78
2017-07-19T08:33:09.171Z,99870.27
2017-07-19T08:35:36.596Z,99868.94
2017-07-19T08:38:04.016Z,99868.09
2017-07-19T08:40:31.430Z,99864.39
2017-07-19T08:42:58.959Z,99870.72
2017-07-19T08:45:26.369Z,99866.92
2017-07-19T08:47:53.795Z,99868.09
2017-07-19T08:50:21.271Z,99854.40
2017-07-19T08:52:48.679Z,99844.23
2017-07-19T08:55:16.416Z,99835.06
2017-07-19T08:57:44.006Z,99835.21
2017-07-19T09:00:11.426Z,99828.48
2017-07-19T09:02:38.850Z,99835.05
2017-07-19T09:05:06.427Z,99827.25
2017-07-19T09:07:33.865Z,99827.81
2017-07-19T09:10:01.279Z,99826.84
2017-07-19T09:12:28.738Z,99837.73
2017-07-19T09:14:56.152Z,99838.00
2017-07-19T09:17:23.578Z,99842.45
2017-07-19T09:19:51.031Z,99841.92
2017-07-19T09:22:18.442Z,99845.33
2017-07-19T09:24:45.865Z,99847.52
2017-07-19T09:27:13.871Z,99842.58
2017-07-19T09:29:41.282Z,99850.34
2017-07-19T09:32:08.703Z,99844.67
2017-07-19T09:34:36.223Z,99838.45
2017-07-19T09:37:03.637Z,99829.70
2017-07-19T09:39:31.046Z,99829.77
2017-07-19T09:41:58.806Z,99826.74
2017-07-19T09:44:26.231Z,99818.77
2017-07-19T09:46:53.638Z,99806.25
2017-07-19T09:49:21.215Z,99806.55
2017-07-19T09:51:48.634Z,99808.22
2017-07-19T09:54:16.067Z,99803.45
2017-07-19T09:56:43.614Z,99813.20
2017-07-19T09:59:11.027Z,99820.02
2017-07-19T10:01:38.439Z,99826.30
2017-07-19T10:04:05.886Z,99831.46
2017-07-19T10:06:33.320Z,99827.45
2017-07-19T10:09:00.786Z,99834.22
2017-07-19T10:11:28.215Z,99834.45
2017-07-19T10:13:55.627Z,99839.95
2017-07-19T10:16:23.046Z,99837.12
2017-07-19T10:18:50.618Z,99842.67
2017-07-19T10:21:18.032Z,99838.17
2017-07-19T10:23:45.437Z,99834.39
2017-07-19T10:26:13.170Z,99834.78
2017-07-19T10:28:40.586Z,99828.16
2017-07-19T10:31:08.013Z,99822.64
2017-07-19T10:33:35.446Z,99818.87
2017-07-19T10:36:02.862Z,99817.00
2017-07-19T10:38:30.282Z,99812.67
2017-07-19T10:40:57.855Z,99814.33
2017-07-19T10:43:25.268Z,99806.86
2017-07-19T10:45:52.673Z,99796.53
2017-07-19T10:48:20.102Z,99798.19
2017-07-19T10:50:47.514Z,99791.49
2017-07-19T10:53:14.939Z,99793.50
2017-07-19T10:55:42.368Z,99794.30
2017-07-19T10:58:09.781Z,99791.52
2017-07-19T11:00:37.198Z,99796.70
2017-07-19T11:03:04.768Z,99794.28
2017-07-19T11:05:32.195Z,99793.10
2017-07-19T11:07:59.610Z,99790.79
2017-07-19T11:10:27.038Z,99788.14
2017-07-19T11:12:54.455Z,99780.55
2017-07-19T11:15:21.874Z,99779.86
2017-07-19T11:17:49.575Z,99782.94
2017-07-19T11:20:16.994Z,99780.78
2017-07-19T11:22:44.402Z,99781.37
2017-07-19T11:25:12.156Z,99778.57
2017-07-19T11:27:39.570Z,99786.52
2017-07-19T11:30:06.999Z,99785.84
2017-07-19T11:32:34.522Z,99776.65
2017-07-19T11:35:01.938Z,99772.78
2017-07-19T11:37:29.361Z,99764.86
2017-07-19T11:39:56.934Z,99761.38
2017-07-19T11:42:24.346Z,99761.28
2017-07-19T11:44:51.784Z,99767.47
2017-07-19T11:47:19.366Z,99762.50
2017-07-19T11:49:46.786Z,99764.10
2017-07-19T11:52:14.194Z,99762.11
2017-07-19T11:54:42.542Z,99763.09
2017-07-19T11:57:09.960Z,99761.91
2017-07-19T11:59:37.401Z,99757.51
2017-07-19T12:02:05.046Z,99754.91
2017-07-19T12:04:32.463Z,99746.08
2017-07-19T12:06:59.874Z,99749.41
2017-07-19T12:09:27.709Z,99746.08
2017-07-19T12:11:56.094Z,99747.89
2017-07-19T12:14:23.515Z,99744.00
2017-07-19T12:16:51.145Z,99745.26
2017-07-19T12:19:18.557Z,99748.42
2017-07-19T12:21:45.964Z,99745.38
2017-07-19T12:24:13.538Z,99742.17
2017-07-19T12:26:40.954Z,99742.55
2017-07-19T12:29:08.386Z,99737.62
2017-07-19T12:31:36.167Z,99741.77
2017-07-19T12:34:03.594Z,99739.80
2017-07-19T12:36:31.006Z,99736.84
2017-07-19T12:38:58.717Z,99728.86
2017-07-19T12:41:26.147Z,99732.23
2017-07-19T12:43:53.919Z,99726.26
2017-07-19T12:46:21.526Z,99722.23
2017-07-19T12:48:56.691Z,99713.01
2017-07-19T12:51:24.259Z,99705.32
2017-07-19T12:53:51.678Z,99695.15
2017-07-19T12:56:19.089Z,99691.13
2017-07-19T12:58:46.622Z,99685.09
2017-07-19T13:01:14.035Z,99677.70
2017-07-19T13:03:41.441Z,99677.77
2017-07-19T13:06:09.023Z,99675.85
2017-07-19T13:08:36.438Z,99669.36
2017-07-19T13:11:03.839Z,99661.98
2017-07-19T13:13:31.268Z,99664.64
2017-07-19T13:15:58.695Z,99662.62
2017-07-19T13:18:26.114Z,99665.19
2017-07-19T13:20:53.706Z,99665.28
2017-07-19T13:23:21.131Z,99657.17
2017-07-19T13:25:48.541Z,99648.44
2017-07-19T13:28:16.487Z,99638.41
2017-07-19T13:30:43.902Z,99634.32
2017-07-19T13:33:11.335Z,99622.85
2017-07-19T13:35:38.906Z,99633.08
2017-07-19T13:38:06.319Z,99651.99
2017-07-19T13:40:33.734Z,99675.69
2017-07-19T13:43:01.202Z,99687.36
2017-07-19T13:45:28.629Z,99683.23
2017-07-19T13:47:56.048Z,99708.11
2017-07-19T13:50:23.570Z,99760.45
2017-07-19T13:52:50.990Z,99855.09
2017-07-19T13:55:18.407Z,99910.81
2017-07-19T13:57:45.979Z,99988.42
2017-07-19T14:00:13.386Z,100015.72
2017-07-19T14:02:40.806Z,100003.26
2017-07-19T14:05:09.271Z,100045.64
2017-07-19T14:07:39.046Z,100067.39
2017-07-19T14:10:06.476Z,100077.84
2017-07-19T14:12:33.913Z,100112.12
2017-07-19T14:15:01.339Z,100130.89
2017-07-19T14:17:28.770Z,100128.37
2017-07-19T14:19:56.586Z,100124.72
2017-07-19T14:22:24.011Z,100092.38
2017-07-19T14:24:51.432Z,100067.34
2017-07-19T14:27:18.876Z,100052.12
2017-07-19T14:29:46.303Z,100011.52
2017-07-19T14:32:13.728Z,99993.27
2017-07-19T14:34:41.252Z,99937.31
2017-07-19T14:37:08.693Z,99962.95
2017-07-19T14:39:36.123Z,99970.98
2017-07-19T14:42:03.702Z,99972.34
2017-07-19T14:44:31.129Z,99954.11
2017-07-19T14:46:58.543Z,99942.73
2017-07-19T14:49:26.014Z,99959.98
2017-07-19T14:51:53.451Z,99975.51
2017-07-19T14:54:20.876Z,100018.70
2017-07-19T14:56:48.319Z,100023.47
2017-07-19T14:59:15.744Z,99991.02
2017-07-19T15:01:43.154Z,99946.70
2017-07-19T15:04:10.596Z,99920.01
2017-07-19T15:06:38.228Z,99929.41
2017-07-19T15:09:05.638Z,99893.80
2017-07-19T15:11:33.206Z,99879.98
2017-07-19T15:14:00.626Z,99928.83
2017-07-19T15:16:28.059Z,99948.59
2017-07-19T15:18:55.773Z,99951.46
2017-07-19T15:21:23.188Z,99945.36
2017-07-19T15:23:50.617Z,99927.60
2017-07-19T15:26:18.066Z,99919.80
2017-07-19T15:28:45.482Z,99921.92
2017-07-19T15:31:12.901Z,99920.73
2017-07-19T15:33:40.326Z,99898.61
2017-07-19T15:36:07.755Z,99879.30
2017-07-19T15:38:35.166Z,99867.05
2017-07-19T15:41:02.649Z,99854.30
2017-07-19T15:43:30.119Z,99853.20
2017-07-19T15:45:57.547Z,99862.48
2017-07-19T15:48:25.259Z,99854.95
2017-07-19T15:50:52.671Z,99848.03
2017-07-19T15:53:20.089Z,99837.88
2017-07-19T15:55:47.668Z,99832.63
2017-07-19T15:58:15.125Z,99836.48
2017-07-19T16:00:42.530Z,99846.99
2017-07-19T16:03:10.151Z,99874.93
2017-07-19T16:05:37.566Z,99876.73
2017-07-19T16:08:05.011Z,99868.11
2017-07-19T16:10:32.482Z,99852.64
2017-07-19T16:12:59.937Z,99836.36
2017-07-19T16:15:27.363Z,99835.59
2017-07-19T16:17:55.135Z,99826.67
2017-07-19T16:20:22.554Z,99823.45
2017-07-19T16:22:49.962Z,99819.23
2017-07-19T16:25:17.538Z,99813.61
2017-07-19T16:27:44.944Z,99801.30
2017-07-19T16:30:12.375Z,99808.67
2017-07-19T16:32:44.207Z,99796.09
2017-07-19T16:35:11.631Z,99781.34
2017-07-19T16:37:39.066Z,99774.65
2017-07-19T16:40:06.631Z,99767.12
2017-07-19T16:42:34.092Z,99780.30
2017-07-19T16:45:01.499Z,99770.84
2017-07-19T16:47:28.947Z,99767.36
2017-07-19T16:49:56.426Z,99759.30
2017-07-19T16:52:23.854Z,99760.45
2017-07-19T16:54:51.327Z,99758.63
2017-07-19T16:57:18.737Z,99749.90
2017-07-19T16:59:46.208Z,99756.23
2017-07-19T17:02:13.691Z,99749.22
2017-07-19T17:04:41.124Z,99744.91
2017-07-19T17:07:08.605Z,99743.27
2017-07-19T17:09:36.511Z,99733.17
2017-07-19T17:12:04.216Z,99735.50
2017-07-19T17:14:31.697Z,99741.33
2017-07-19T17:17:00.311Z,99739.89
2017-07-19T17:19:27.758Z,99729.92
2017-07-19T17:21:55.180Z,99731.67
2017-07-19T17:24:22.755Z,99730.80
2017-07-19T17:26:50.202Z,99735.58
2017-07-19T17:29:17.628Z,99739.80
2017-07-19T17:31:45.233Z,99746.55
2017-07-19T17:34:12.658Z,99753.15
2017-07-19T17:36:40.118Z,99750.34
2017-07-19T17:39:07.880Z,99752.39
2017-07-19T17:41:35.346Z,99747.56
2017-07-19T17:44:02.762Z,99747.77
2017-07-19T17:46:30.493Z,99743.03
2017-07-19T17:48:57.931Z,99733.92
2017-07-19T17:51:25.367Z,99740.63
2017-07-19T17:53:52.832Z,99751.18
2017-07-19T17:56:20.275Z,99748.91
2017-07-19T17:58:47.809Z,99746.00
2017-07-19T18:01:15.333Z,99742.90
2017-07-19T18:03:42.880Z,99753.16
2017-07-19T18:06:10.368Z,99758.52
2017-07-19T18:08:37.968Z,99755.72
2017-07-19T18:11:05.443Z,99751.56
2017-07-19T18:13:32.867Z,99746.79
2017-07-19T18:16:00.403Z,99741.72
2017-07-19T18:18:29.276Z,99741.45
2017-07-19T18:20:56.694Z,99742.68
2017-07-19T18:23:24.227Z,99731.64
2017-07-19T18:25:51.670Z,99740.45
2017-07-19T18:28:19.086Z,99734.87
2017-07-19T18:30:46.745Z,99729.48
2017-07-19T18:33:14.171Z,99730.55
2017-07-19T18:35:41.957Z,99733.31
2017-07-19T18:38:09.421Z,99747.98
2017-07-19T18:40:36.848Z,99742.42
2017-07-19T18:43:04.303Z,99748.31
2017-07-19T18:45:31.843Z,99746.94
2017-07-19T18:47:59.258Z,99753.92
2017-07-19T18:50:26.679Z,99749.08
2017-07-19T18:52:54.202Z,99750.77
2017-07-19T18:55:21.631Z,99751.20
2017-07-19T18:57:49.087Z,99752.12
2017-07-19T19:00:16.689Z,99753.36
2017-07-19T19:02:44.093Z,99752.23
2017-07-19T19:05:11.550Z,99755.98
2017-07-19T19:07:39.334Z,99760.06
2017-07-19T19:10:06.751Z,99754.57
2017-07-19T19:12:34.185Z,99747.88
2017-07-19T19:15:01.710Z,99753.88
2017-07-19T19:17:29.173Z,99753.47
2017-07-19T19:19:56.578Z,99757.16
2017-07-19T19:22:24.069Z,99753.52
2017-07-19T19:24:51.500Z,99755.27
2017-07-19T19:27:18.931Z,99759.61
2017-07-19T19:29:46.902Z,99760.26
2017-07-19T19:32:14.355Z,99757.39
2017-07-19T19:34:41.774Z,99761.16
2017-07-19T19:37:09.407Z,99757.89
2017-07-19T19:39:36.831Z,99757.17
2017-07-19T19:42:05.218Z,99755.81
2017-07-19T19:44:32.882Z,99765.55
2017-07-19T19:47:00.296Z,99758.56
2017-07-19T19:49:28.614Z,99758.91
2017-07-19T19:51:56.510Z,99760.49
2017-07-19T19:54:24.827Z,99756.47
2017-07-19T19:56:52.287Z,99757.48
2017-07-19T19:59:19.827Z,99752.39
2017-07-19T20:01:47.250Z,99753.08
2017-07-19T20:04:14.693Z,99755.95
2017-07-19T20:06:42.438Z,99746.91
2017-07-19T20:09:09.851Z,99747.64
2017-07-19T20:11:37.274Z,99750.09
2017-07-19T20:14:04.879Z,99746.98
2017-07-19T20:16:32.322Z,99746.20
2017-07-19T20:18:59.740Z,99744.17
2017-07-19T20:21:27.337Z,99743.08
2017-07-19T20:23:54.756Z,99744.86
2017-07-19T20:26:22.196Z,99736.05
2017-07-19T20:28:49.932Z,99736.82
2017-07-19T20:31:17.358Z,99735.19
2017-07-19T20:33:44.781Z,99738.95
2017-07-19T20:36:12.528Z,99740.71
2017-07-19T20:38:39.974Z,99740.55
2017-07-19T20:41:07.394Z,99740.28
2017-07-19T20:43:34.834Z,99745.95
2017-07-19T20:46:02.286Z,99742.75
2017-07-19T20:48:29.695Z,99742.39
2017-07-19T20:50:57.230Z,99747.72
2017-07-19T20:53:24.646Z,99745.61
2017-07-19T20:55:52.058Z,99750.37
2017-07-19T20:58:19.680Z,99755.86
2017-07-19T21:00:47.083Z,99746.36
2017-07-19T21:03:14.514Z,99744.34
2017-07-19T21:05:42.091Z,99758.22
2017-07-19T21:08:13.045Z,99756.89
2017-07-19T21:10:40.449Z,99763.52
2017-07-19T21:13:08.057Z,99755.29
2017-07-19T21:15:35.479Z,99759.93
2017-07-19T21:18:02.901Z,99766.86
2017-07-19T21:20:30.373Z,99765.37
2017-07-19T21:22:57.786Z,99763.09
2017-07-19T21:25:25.210Z,99757.30
2017-07-19T21:27:52.794Z,99758.49
2017-07-19T21:30:20.224Z,99754.58
2017-07-19T21:32:47.634Z,99753.19
2017-07-19T21:35:15.467Z,99754.94
2017-07-19T21:37:42.886Z,99755.10
2017-07-19T21:40:10.298Z,99747.52
2017-07-19T21:42:37.967Z,99744.59
2017-07-19T21:45:05.386Z,99745.94
2017-07-19T21:47:32.805Z,99742.52
2017-07-19T21:50:00.266Z,99744.04
2017-07-19T21:52:27.690Z,99741.64
2017-07-19T21:54:55.119Z,99739.03
2017-07-19T21:57:22.714Z,99738.52
2017-07-19T21:59:50.138Z,99738.37
2017-07-19T22:02:17.551Z,99744.25
2017-07-19T22:04:45.091Z,99746.70
2017-07-19T22:07:12.513Z,99743.06
2017-07-19T22:09:39.930Z,99735.34
2017-07-19T22:12:07.399Z,99732.22
2017-07-19T22:14:34.820Z,99731.40
2017-07-19T22:17:02.236Z,99728.67
2017-07-19T22:19:29.954Z,99736.89
2017-07-19T22:21:57.377Z,99725.38
2017-07-19T22:24:24.797Z,99728.45
2017-07-19T22:26:52.630Z,99735.48
2017-07-19T22:29:20.033Z,99727.70
2017-07-19T22:31:47.439Z,99734.31
2017-07-19T22:34:14.918Z,99741.34
2017-07-19T22:36:42.335Z,99733.05
2017-07-19T22:39:09.767Z,99738.98
2017-07-19T22:41:37.205Z,99742.37
2017-07-19T22:44:04.642Z,99737.55
2017-07-19T22:46:32.067Z,99739.16
2017-07-19T22:48:59.552Z,99736.97
2017-07-19T22:51:26.974Z,99737.48
2017-07-19T22:53:54.426Z,99735.72
2017-07-19T22:56:22.318Z,99743.57
2017-07-19T22:58:49.763Z,99750.27
2017-07-19T23:01:17.178Z,99749.70
2017-07-19T23:03:44.893Z,99754.45
2017-07-19T23:06:12.306Z,99758.49
2017-07-19T23:08:39.727Z,99751.72
2017-07-19T23:11:07.308Z,99750.60
2017-07-19T23:13:34.726Z,99746.78
2017-07-19T23:16:02.138Z,99754.09
2017-07-19T23:18:29.618Z,99758.08
2017-07-19T23:20:57.028Z,99759.34
2017-07-19T23:23:24.463Z,99764.06
2017-07-19T23:25:51.902Z,99767.47
2017-07-19T23:28:19.318Z,99765.18
2017-07-19T23:30:46.736Z,99761.80
2017-07-19T23:33:14.552Z,99757.20
2017-07-19T23:35:41.968Z,99754.50
2017-07-19T23:38:09.383Z,99759.25
2017-07-19T23:40:36.892Z,99760.69
2017-07-19T23:43:04.301Z,99764.06
2017-07-19T23:45:31.726Z,99763.25
2017-07-19T23:47:59.300Z,99766.11
2017-07-19T23:50:26.726Z,99769.47
2017-07-19T23:52:54.158Z,99757.48
2017-07-19T23:55:22.099Z,99755.72
2017-07-19T23:57:49.507Z,99753.30
